sensor_id;sensor_type;location;lat;lon;timestamp;P1;durP1;ratioP1;P2;durP2;ratioP2
26375;SDS011;30544;42.196;24.336;2023-09-19T00:00:15;654.25;;;188.85;;
26375;SDS011;30544;42.196;24.336;2023-09-19T00:02:45;459.67;;;138.05;;
26375;SDS011;30544;42.196;24.336;2023-09-19T00:05:13;45.30;;;17.67;;
26375;SDS011;30544;42.196;24.336;2023-09-19T00:07:40;105.80;;;29.70;;
26375;SDS011;30544;42.196;24.336;2023-09-19T00:10:07;485.40;;;130.55;;
26375;SDS011;30544;42.196;24.336;2023-09-19T00:12:35;56.70;;;21.85;;
26375;SDS011;30544;42.196;24.336;2023-09-19T00:15:02;47.58;;;16.58;;
26375;SDS011;30544;42.196;24.336;2023-09-19T00:17:31;45.88;;;18.90;;
26375;SDS011;30544;42.196;24.336;2023-09-19T00:20:01;54.58;;;21.10;;
26375;SDS011;30544;42.196;24.336;2023-09-19T00:22:32;41.53;;;15.70;;
26375;SDS011;30544;42.196;24.336;2023-09-19T00:24:59;49.70;;;18.42;;
26375;SDS011;30544;42.196;24.336;2023-09-19T00:27:26;42.65;;;16.15;;
26375;SDS011;30544;42.196;24.336;2023-09-19T00:29:53;44.10;;;17.77;;
26375;SDS011;30544;42.196;24.336;2023-09-19T00:32:20;52.10;;;20.35;;
26375;SDS011;30544;42.196;24.336;2023-09-19T00:34:46;39.92;;;17.80;;
26375;SDS011;30544;42.196;24.336;2023-09-19T00:37:15;49.47;;;18.08;;
26375;SDS011;30544;42.196;24.336;2023-09-19T00:39:43;47.08;;;19.10;;
26375;SDS011;30544;42.196;24.336;2023-09-19T00:42:16;53.22;;;21.58;;
26375;SDS011;30544;42.196;24.336;2023-09-19T00:44:46;503.67;;;136.65;;
26375;SDS011;30544;42.196;24.336;2023-09-19T00:47:12;474.73;;;121.97;;
26375;SDS011;30544;42.196;24.336;2023-09-19T00:49:42;464.85;;;116.07;;
26375;SDS011;30544;42.196;24.336;2023-09-19T00:52:09;464.00;;;120.68;;
26375;SDS011;30544;42.196;24.336;2023-09-19T00:54:38;661.08;;;167.20;;
26375;SDS011;30544;42.196;24.336;2023-09-19T00:57:05;463.15;;;123.18;;
26375;SDS011;30544;42.196;24.336;2023-09-19T00:59:33;94.80;;;27.10;;
26375;SDS011;30544;42.196;24.336;2023-09-19T01:02:00;464.60;;;125.78;;
26375;SDS011;30544;42.196;24.336;2023-09-19T01:04:28;659.42;;;176.52;;
26375;SDS011;30544;42.196;24.336;2023-09-19T01:06:55;464.05;;;124.15;;
26375;SDS011;30544;42.196;24.336;2023-09-19T01:09:24;31.52;;;15.75;;
26375;SDS011;30544;42.196;24.336;2023-09-19T01:11:53;465.10;;;135.18;;
26375;SDS011;30544;42.196;24.336;2023-09-19T01:14:29;450.55;;;119.55;;
26375;SDS011;30544;42.196;24.336;2023-09-19T01:17:00;102.50;;;27.48;;
26375;SDS011;30544;42.196;24.336;2023-09-19T01:22:46;96.45;;;26.90;;
26375;SDS011;30544;42.196;24.336;2023-09-19T01:25:22;37.88;;;15.32;;
26375;SDS011;30544;42.196;24.336;2023-09-19T01:28:19;98.65;;;27.60;;
26375;SDS011;30544;42.196;24.336;2023-09-19T01:30:57;635.42;;;170.13;;
26375;SDS011;30544;42.196;24.336;2023-09-19T01:33:25;631.83;;;164.82;;
26375;SDS011;30544;42.196;24.336;2023-09-19T01:35:52;280.02;;;82.93;;
26375;SDS011;30544;42.196;24.336;2023-09-19T01:38:22;254.52;;;68.22;;
26375;SDS011;30544;42.196;24.336;2023-09-19T01:40:51;447.83;;;129.50;;
26375;SDS011;30544;42.196;24.336;2023-09-19T01:43:31;91.03;;;25.95;;
26375;SDS011;30544;42.196;24.336;2023-09-19T01:46:04;446.60;;;115.20;;
26375;SDS011;30544;42.196;24.336;2023-09-19T01:48:38;94.53;;;28.77;;
26375;SDS011;30544;42.196;24.336;2023-09-19T01:51:13;622.92;;;164.43;;
26375;SDS011;30544;42.196;24.336;2023-09-19T01:53:50;630.90;;;178.57;;
26375;SDS011;30544;42.196;24.336;2023-09-19T01:56:22;261.90;;;76.38;;
26375;SDS011;30544;42.196;24.336;2023-09-19T01:58:56;271.98;;;75.00;;
26375;SDS011;30544;42.196;24.336;2023-09-19T02:01:30;643.08;;;172.13;;
26375;SDS011;30544;42.196;24.336;2023-09-19T02:03:58;42.63;;;19.10;;
26375;SDS011;30544;42.196;24.336;2023-09-19T02:06:25;54.83;;;23.08;;
26375;SDS011;30544;42.196;24.336;2023-09-19T02:08:52;32.40;;;16.05;;
26375;SDS011;30544;42.196;24.336;2023-09-19T02:11:20;31.63;;;15.70;;
26375;SDS011;30544;42.196;24.336;2023-09-19T02:13:47;29.58;;;14.35;;
26375;SDS011;30544;42.196;24.336;2023-09-19T02:16:18;26.90;;;12.27;;
26375;SDS011;30544;42.196;24.336;2023-09-19T02:18:47;40.72;;;17.75;;
26375;SDS011;30544;42.196;24.336;2023-09-19T02:21:14;42.08;;;19.00;;
26375;SDS011;30544;42.196;24.336;2023-09-19T02:23:42;48.90;;;21.27;;
26375;SDS011;30544;42.196;24.336;2023-09-19T02:26:09;48.53;;;18.60;;
26375;SDS011;30544;42.196;24.336;2023-09-19T02:28:36;46.67;;;19.00;;
26375;SDS011;30544;42.196;24.336;2023-09-19T02:31:03;39.30;;;17.50;;
26375;SDS011;30544;42.196;24.336;2023-09-19T02:33:31;46.33;;;19.10;;
26375;SDS011;30544;42.196;24.336;2023-09-19T02:35:59;43.92;;;17.98;;
26375;SDS011;30544;42.196;24.336;2023-09-19T02:38:29;34.38;;;14.57;;
26375;SDS011;30544;42.196;24.336;2023-09-19T02:40:56;30.17;;;15.05;;
26375;SDS011;30544;42.196;24.336;2023-09-19T02:43:23;43.13;;;20.27;;
26375;SDS011;30544;42.196;24.336;2023-09-19T02:45:50;36.72;;;16.85;;
26375;SDS011;30544;42.196;24.336;2023-09-19T02:48:18;37.95;;;15.57;;
26375;SDS011;30544;42.196;24.336;2023-09-19T02:50:45;60.85;;;26.83;;
26375;SDS011;30544;42.196;24.336;2023-09-19T02:53:17;49.97;;;20.55;;
26375;SDS011;30544;42.196;24.336;2023-09-19T02:55:44;42.20;;;18.45;;
26375;SDS011;30544;42.196;24.336;2023-09-19T02:58:11;52.30;;;20.83;;
26375;SDS011;30544;42.196;24.336;2023-09-19T03:00:39;51.50;;;18.67;;
26375;SDS011;30544;42.196;24.336;2023-09-19T03:03:07;47.83;;;20.75;;
26375;SDS011;30544;42.196;24.336;2023-09-19T03:05:34;44.08;;;19.00;;
26375;SDS011;30544;42.196;24.336;2023-09-19T03:08:03;43.65;;;19.48;;
26375;SDS011;30544;42.196;24.336;2023-09-19T03:10:32;41.13;;;17.90;;
26375;SDS011;30544;42.196;24.336;2023-09-19T03:13:00;54.10;;;21.27;;
26375;SDS011;30544;42.196;24.336;2023-09-19T03:15:28;44.78;;;18.45;;
26375;SDS011;30544;42.196;24.336;2023-09-19T03:17:55;53.17;;;25.23;;
26375;SDS011;30544;42.196;24.336;2023-09-19T03:20:22;42.65;;;18.65;;
26375;SDS011;30544;42.196;24.336;2023-09-19T03:22:50;47.92;;;20.55;;
26375;SDS011;30544;42.196;24.336;2023-09-19T03:25:18;36.78;;;16.13;;
26375;SDS011;30544;42.196;24.336;2023-09-19T03:27:46;36.80;;;16.35;;
26375;SDS011;30544;42.196;24.336;2023-09-19T03:30:13;53.38;;;22.27;;
26375;SDS011;30544;42.196;24.336;2023-09-19T03:32:43;41.13;;;17.52;;
26375;SDS011;30544;42.196;24.336;2023-09-19T03:35:11;35.35;;;15.50;;
26375;SDS011;30544;42.196;24.336;2023-09-19T03:37:39;47.25;;;18.48;;
26375;SDS011;30544;42.196;24.336;2023-09-19T03:40:07;45.63;;;19.98;;
26375;SDS011;30544;42.196;24.336;2023-09-19T03:42:37;35.33;;;15.20;;
26375;SDS011;30544;42.196;24.336;2023-09-19T03:45:06;40.42;;;17.35;;
26375;SDS011;30544;42.196;24.336;2023-09-19T03:47:37;38.90;;;16.17;;
26375;SDS011;30544;42.196;24.336;2023-09-19T03:50:04;45.05;;;18.55;;
26375;SDS011;30544;42.196;24.336;2023-09-19T03:52:33;41.72;;;18.38;;
26375;SDS011;30544;42.196;24.336;2023-09-19T03:55:00;38.75;;;15.38;;
26375;SDS011;30544;42.196;24.336;2023-09-19T03:57:29;38.17;;;15.63;;
26375;SDS011;30544;42.196;24.336;2023-09-19T03:59:56;33.10;;;14.93;;
26375;SDS011;30544;42.196;24.336;2023-09-19T04:02:24;36.80;;;17.77;;
26375;SDS011;30544;42.196;24.336;2023-09-19T04:07:24;29.98;;;14.18;;
26375;SDS011;30544;42.196;24.336;2023-09-19T04:09:54;33.17;;;14.90;;
26375;SDS011;30544;42.196;24.336;2023-09-19T04:12:20;67.50;;;27.05;;
26375;SDS011;30544;42.196;24.336;2023-09-19T04:14:47;30.65;;;15.23;;
26375;SDS011;30544;42.196;24.336;2023-09-19T04:17:15;35.67;;;16.08;;
26375;SDS011;30544;42.196;24.336;2023-09-19T04:19:43;35.30;;;15.77;;
26375;SDS011;30544;42.196;24.336;2023-09-19T04:22:10;40.75;;;17.83;;
26375;SDS011;30544;42.196;24.336;2023-09-19T04:24:38;34.45;;;14.43;;
26375;SDS011;30544;42.196;24.336;2023-09-19T04:27:04;34.45;;;15.30;;
26375;SDS011;30544;42.196;24.336;2023-09-19T04:29:32;37.45;;;16.90;;
26375;SDS011;30544;42.196;24.336;2023-09-19T04:31:59;41.92;;;18.38;;
26375;SDS011;30544;42.196;24.336;2023-09-19T04:34:25;32.58;;;14.77;;
26375;SDS011;30544;42.196;24.336;2023-09-19T04:36:54;34.90;;;16.52;;
26375;SDS011;30544;42.196;24.336;2023-09-19T04:39:23;40.45;;;18.67;;
26375;SDS011;30544;42.196;24.336;2023-09-19T04:41:51;29.67;;;14.30;;
26375;SDS011;30544;42.196;24.336;2023-09-19T04:44:18;29.10;;;14.07;;
26375;SDS011;30544;42.196;24.336;2023-09-19T04:46:45;31.23;;;15.55;;
26375;SDS011;30544;42.196;24.336;2023-09-19T04:49:12;39.72;;;18.05;;
26375;SDS011;30544;42.196;24.336;2023-09-19T04:51:39;37.05;;;14.90;;
26375;SDS011;30544;42.196;24.336;2023-09-19T04:54:08;30.15;;;14.23;;
26375;SDS011;30544;42.196;24.336;2023-09-19T04:56:35;46.08;;;19.45;;
26375;SDS011;30544;42.196;24.336;2023-09-19T04:59:05;43.80;;;19.42;;
26375;SDS011;30544;42.196;24.336;2023-09-19T05:01:32;36.25;;;17.05;;
26375;SDS011;30544;42.196;24.336;2023-09-19T05:03:59;45.08;;;20.60;;
26375;SDS011;30544;42.196;24.336;2023-09-19T05:06:26;37.60;;;16.65;;
26375;SDS011;30544;42.196;24.336;2023-09-19T05:08:52;87.38;;;25.42;;
26375;SDS011;30544;42.196;24.336;2023-09-19T05:11:21;29.92;;;13.63;;
26375;SDS011;30544;42.196;24.336;2023-09-19T05:13:48;281.00;;;66.10;;
26375;SDS011;30544;42.196;24.336;2023-09-19T05:16:15;274.35;;;65.43;;
26375;SDS011;30544;42.196;24.336;2023-09-19T05:18:43;285.30;;;68.43;;
26375;SDS011;30544;42.196;24.336;2023-09-19T05:21:10;116.75;;;29.60;;
26375;SDS011;30544;42.196;24.336;2023-09-19T05:23:37;454.17;;;104.15;;
26375;SDS011;30544;42.196;24.336;2023-09-19T05:26:04;455.42;;;102.20;;
26375;SDS011;30544;42.196;24.336;2023-09-19T05:28:32;42.40;;;17.90;;
26375;SDS011;30544;42.196;24.336;2023-09-19T05:31:00;31.63;;;13.20;;
26375;SDS011;30544;42.196;24.336;2023-09-19T05:33:27;455.88;;;104.70;;
26375;SDS011;30544;42.196;24.336;2023-09-19T05:35:56;650.08;;;150.32;;
26375;SDS011;30544;42.196;24.336;2023-09-19T05:38:22;285.23;;;71.78;;
26375;SDS011;30544;42.196;24.336;2023-09-19T05:40:51;31.90;;;12.63;;
26375;SDS011;30544;42.196;24.336;2023-09-19T05:43:19;30.13;;;12.82;;
26375;SDS011;30544;42.196;24.336;2023-09-19T05:45:47;30.58;;;14.00;;
26375;SDS011;30544;42.196;24.336;2023-09-19T05:48:17;26.00;;;13.40;;
26375;SDS011;30544;42.196;24.336;2023-09-19T05:50:46;651.22;;;159.43;;
26375;SDS011;30544;42.196;24.336;2023-09-19T05:53:13;33.05;;;13.60;;
26375;SDS011;30544;42.196;24.336;2023-09-19T05:55:41;108.75;;;30.02;;
26375;SDS011;30544;42.196;24.336;2023-09-19T05:58:08;451.33;;;109.20;;
26375;SDS011;30544;42.196;24.336;2023-09-19T06:00:35;446.20;;;115.00;;
26375;SDS011;30544;42.196;24.336;2023-09-19T06:03:03;34.58;;;14.52;;
26375;SDS011;30544;42.196;24.336;2023-09-19T06:05:30;43.42;;;15.45;;
26375;SDS011;30544;42.196;24.336;2023-09-19T06:07:57;36.45;;;15.32;;
26375;SDS011;30544;42.196;24.336;2023-09-19T06:10:25;30.13;;;13.52;;
26375;SDS011;30544;42.196;24.336;2023-09-19T06:12:53;87.75;;;25.98;;
26375;SDS011;30544;42.196;24.336;2023-09-19T06:15:20;38.00;;;16.20;;
26375;SDS011;30544;42.196;24.336;2023-09-19T06:17:48;36.50;;;15.30;;
26375;SDS011;30544;42.196;24.336;2023-09-19T06:20:17;40.75;;;17.52;;
26375;SDS011;30544;42.196;24.336;2023-09-19T06:22:45;123.30;;;35.53;;
26375;SDS011;30544;42.196;24.336;2023-09-19T06:25:12;40.10;;;16.45;;
26375;SDS011;30544;42.196;24.336;2023-09-19T06:27:40;44.67;;;17.50;;
26375;SDS011;30544;42.196;24.336;2023-09-19T06:30:08;42.72;;;16.30;;
26375;SDS011;30544;42.196;24.336;2023-09-19T06:32:36;47.55;;;18.20;;
26375;SDS011;30544;42.196;24.336;2023-09-19T06:35:03;463.27;;;109.60;;
26375;SDS011;30544;42.196;24.336;2023-09-19T06:37:34;48.08;;;20.95;;
26375;SDS011;30544;42.196;24.336;2023-09-19T06:40:04;454.45;;;109.85;;
26375;SDS011;30544;42.196;24.336;2023-09-19T06:42:33;479.17;;;154.77;;
26375;SDS011;30544;42.196;24.336;2023-09-19T06:45:00;480.52;;;147.30;;
26375;SDS011;30544;42.196;24.336;2023-09-19T06:47:27;464.45;;;137.48;;
26375;SDS011;30544;42.196;24.336;2023-09-19T06:49:53;462.95;;;153.45;;
26375;SDS011;30544;42.196;24.336;2023-09-19T06:52:20;688.50;;;188.65;;
26375;SDS011;30544;42.196;24.336;2023-09-19T06:54:48;33.60;;;16.10;;
26375;SDS011;30544;42.196;24.336;2023-09-19T06:57:17;38.75;;;15.57;;
26375;SDS011;30544;42.196;24.336;2023-09-19T06:59:45;39.38;;;15.45;;
26375;SDS011;30544;42.196;24.336;2023-09-19T07:02:11;47.28;;;17.25;;
26375;SDS011;30544;42.196;24.336;2023-09-19T07:04:38;44.95;;;17.27;;
26375;SDS011;30544;42.196;24.336;2023-09-19T07:07:05;35.90;;;13.63;;
26375;SDS011;30544;42.196;24.336;2023-09-19T07:09:34;717.20;;;201.77;;
26375;SDS011;30544;42.196;24.336;2023-09-19T07:12:02;48.83;;;15.38;;
26375;SDS011;30544;42.196;24.336;2023-09-19T07:14:29;521.97;;;133.15;;
26375;SDS011;30544;42.196;24.336;2023-09-19T07:16:56;726.83;;;192.57;;
26375;SDS011;30544;42.196;24.336;2023-09-19T07:19:25;47.25;;;16.73;;
26375;SDS011;30544;42.196;24.336;2023-09-19T07:21:53;113.60;;;29.67;;
26375;SDS011;30544;42.196;24.336;2023-09-19T07:24:20;495.50;;;159.98;;
26375;SDS011;30544;42.196;24.336;2023-09-19T07:26:49;34.35;;;14.45;;
26375;SDS011;30544;42.196;24.336;2023-09-19T07:29:17;39.75;;;17.52;;
26375;SDS011;30544;42.196;24.336;2023-09-19T07:31:44;512.58;;;173.10;;
26375;SDS011;30544;42.196;24.336;2023-09-19T07:34:12;480.05;;;150.85;;
26375;SDS011;30544;42.196;24.336;2023-09-19T07:36:39;477.95;;;149.57;;
26375;SDS011;30544;42.196;24.336;2023-09-19T07:39:07;493.70;;;179.23;;
26375;SDS011;30544;42.196;24.336;2023-09-19T07:41:33;488.00;;;181.27;;
26375;SDS011;30544;42.196;24.336;2023-09-19T07:44:00;675.28;;;224.32;;
26375;SDS011;30544;42.196;24.336;2023-09-19T07:46:28;476.52;;;172.52;;
26375;SDS011;30544;42.196;24.336;2023-09-19T07:48:56;477.92;;;182.23;;
26375;SDS011;30544;42.196;24.336;2023-09-19T07:51:23;699.20;;;252.35;;
26375;SDS011;30544;42.196;24.336;2023-09-19T07:53:50;490.85;;;189.40;;
26375;SDS011;30544;42.196;24.336;2023-09-19T07:56:17;282.40;;;90.78;;
26375;SDS011;30544;42.196;24.336;2023-09-19T07:58:45;487.85;;;184.85;;
26375;SDS011;30544;42.196;24.336;2023-09-19T08:01:12;521.45;;;190.20;;
26375;SDS011;30544;42.196;24.336;2023-09-19T08:03:42;43.58;;;17.20;;
26375;SDS011;30544;42.196;24.336;2023-09-19T08:06:10;37.20;;;13.15;;
26375;SDS011;30544;42.196;24.336;2023-09-19T08:08:38;41.42;;;15.13;;
26375;SDS011;30544;42.196;24.336;2023-09-19T08:11:06;48.17;;;18.02;;
26375;SDS011;30544;42.196;24.336;2023-09-19T08:13:36;40.72;;;15.68;;
26375;SDS011;30544;42.196;24.336;2023-09-19T08:16:08;46.53;;;17.33;;
26375;SDS011;30544;42.196;24.336;2023-09-19T08:18:35;45.95;;;16.65;;
26375;SDS011;30544;42.196;24.336;2023-09-19T08:21:04;46.53;;;18.30;;
26375;SDS011;30544;42.196;24.336;2023-09-19T08:23:33;106.10;;;36.22;;
26375;SDS011;30544;42.196;24.336;2023-09-19T08:26:00;492.83;;;165.70;;
26375;SDS011;30544;42.196;24.336;2023-09-19T08:28:31;718.58;;;242.45;;
26375;SDS011;30544;42.196;24.336;2023-09-19T08:31:01;489.00;;;165.27;;
26375;SDS011;30544;42.196;24.336;2023-09-19T08:33:29;32.60;;;12.10;;
26375;SDS011;30544;42.196;24.336;2023-09-19T08:35:57;493.13;;;163.95;;
26375;SDS011;30544;42.196;24.336;2023-09-19T08:38:25;288.83;;;107.32;;
26375;SDS011;30544;42.196;24.336;2023-09-19T08:40:56;501.17;;;194.27;;
26375;SDS011;30544;42.196;24.336;2023-09-19T08:43:24;294.17;;;102.93;;
26375;SDS011;30544;42.196;24.336;2023-09-19T08:45:51;507.90;;;200.80;;
26375;SDS011;30544;42.196;24.336;2023-09-19T08:48:24;297.80;;;113.45;;
26375;SDS011;30544;42.196;24.336;2023-09-19T08:50:55;514.25;;;209.68;;
26375;SDS011;30544;42.196;24.336;2023-09-19T08:53:29;509.97;;;170.70;;
26375;SDS011;30544;42.196;24.336;2023-09-19T08:56:03;499.45;;;182.65;;
26375;SDS011;30544;42.196;24.336;2023-09-19T08:58:39;505.50;;;177.85;;
26375;SDS011;30544;42.196;24.336;2023-09-19T09:01:12;716.97;;;274.23;;
26375;SDS011;30544;42.196;24.336;2023-09-19T09:03:41;721.08;;;285.05;;
26375;SDS011;30544;42.196;24.336;2023-09-19T09:06:11;724.58;;;292.92;;
26375;SDS011;30544;42.196;24.336;2023-09-19T09:08:43;753.70;;;323.40;;
26375;SDS011;30544;42.196;24.336;2023-09-19T09:11:10;520.00;;;197.10;;
26375;SDS011;30544;42.196;24.336;2023-09-19T09:13:37;528.28;;;209.45;;
26375;SDS011;30544;42.196;24.336;2023-09-19T09:16:06;761.95;;;325.73;;
26375;SDS011;30544;42.196;24.336;2023-09-19T09:18:33;315.10;;;125.07;;
26375;SDS011;30544;42.196;24.336;2023-09-19T09:21:00;321.13;;;128.63;;
26375;SDS011;30544;42.196;24.336;2023-09-19T09:23:29;753.58;;;330.13;;
26375;SDS011;30544;42.196;24.336;2023-09-19T09:25:59;765.13;;;322.75;;
26375;SDS011;30544;42.196;24.336;2023-09-19T09:28:28;33.90;;;10.68;;
26375;SDS011;30544;42.196;24.336;2023-09-19T09:30:56;36.95;;;11.55;;
26375;SDS011;30544;42.196;24.336;2023-09-19T09:33:24;31.58;;;9.73;;
26375;SDS011;30544;42.196;24.336;2023-09-19T09:35:52;31.00;;;9.85;;
26375;SDS011;30544;42.196;24.336;2023-09-19T09:38:22;42.90;;;13.43;;
26375;SDS011;30544;42.196;24.336;2023-09-19T09:40:52;53.80;;;16.60;;
26375;SDS011;30544;42.196;24.336;2023-09-19T09:43:27;40.47;;;12.75;;
26375;SDS011;30544;42.196;24.336;2023-09-19T09:46:08;41.50;;;13.10;;
26375;SDS011;30544;42.196;24.336;2023-09-19T09:48:56;44.65;;;15.07;;
26375;SDS011;30544;42.196;24.336;2023-09-19T09:51:38;55.35;;;17.58;;
26375;SDS011;30544;42.196;24.336;2023-09-19T09:54:10;37.10;;;12.27;;
26375;SDS011;30544;42.196;24.336;2023-09-19T09:56:51;52.00;;;16.73;;
26375;SDS011;30544;42.196;24.336;2023-09-19T09:59:21;32.40;;;11.02;;
26375;SDS011;30544;42.196;24.336;2023-09-19T10:01:49;39.35;;;13.30;;
26375;SDS011;30544;42.196;24.336;2023-09-19T10:04:26;40.80;;;13.40;;
26375;SDS011;30544;42.196;24.336;2023-09-19T10:06:55;36.17;;;11.60;;
26375;SDS011;30544;42.196;24.336;2023-09-19T10:09:22;40.28;;;12.60;;
26375;SDS011;30544;42.196;24.336;2023-09-19T10:12:03;44.53;;;12.90;;
26375;SDS011;30544;42.196;24.336;2023-09-19T10:14:35;525.63;;;237.65;;
26375;SDS011;30544;42.196;24.336;2023-09-19T10:17:04;523.33;;;218.15;;
26375;SDS011;30544;42.196;24.336;2023-09-19T10:19:36;45.67;;;11.95;;
26375;SDS011;30544;42.196;24.336;2023-09-19T10:22:04;40.55;;;14.32;;
26375;SDS011;30544;42.196;24.336;2023-09-19T10:24:33;50.55;;;14.10;;
26375;SDS011;30544;42.196;24.336;2023-09-19T10:27:04;37.38;;;12.80;;
26375;SDS011;30544;42.196;24.336;2023-09-19T10:29:35;38.28;;;12.02;;
26375;SDS011;30544;42.196;24.336;2023-09-19T10:32:05;38.92;;;11.93;;
26375;SDS011;30544;42.196;24.336;2023-09-19T10:34:34;43.65;;;13.77;;
26375;SDS011;30544;42.196;24.336;2023-09-19T10:37:04;34.53;;;10.73;;
26375;SDS011;30544;42.196;24.336;2023-09-19T10:39:34;36.05;;;11.13;;
26375;SDS011;30544;42.196;24.336;2023-09-19T10:42:03;42.83;;;12.90;;
26375;SDS011;30544;42.196;24.336;2023-09-19T10:44:36;44.58;;;13.57;;
26375;SDS011;30544;42.196;24.336;2023-09-19T10:47:08;49.88;;;14.90;;
26375;SDS011;30544;42.196;24.336;2023-09-19T10:49:42;48.58;;;15.27;;
26375;SDS011;30544;42.196;24.336;2023-09-19T10:52:11;34.83;;;10.35;;
26375;SDS011;30544;42.196;24.336;2023-09-19T10:54:44;41.33;;;11.88;;
26375;SDS011;30544;42.196;24.336;2023-09-19T10:57:18;556.90;;;288.73;;
26375;SDS011;30544;42.196;24.336;2023-09-19T11:00:03;508.33;;;259.00;;
26375;SDS011;30544;42.196;24.336;2023-09-19T11:06:07;512.30;;;266.60;;
26375;SDS011;30544;42.196;24.336;2023-09-19T11:11:39;743.78;;;379.77;;
26375;SDS011;30544;42.196;24.336;2023-09-19T11:20:21;500.65;;;267.52;;
26375;SDS011;30544;42.196;24.336;2023-09-19T11:23:20;524.92;;;284.85;;
26375;SDS011;30544;42.196;24.336;2023-09-19T11:25:51;745.92;;;435.92;;
26375;SDS011;30544;42.196;24.336;2023-09-19T11:40:35;496.75;;;260.88;;
26375;SDS011;30544;42.196;24.336;2023-09-19T11:46:04;473.50;;;245.10;;
26375;SDS011;30544;42.196;24.336;2023-09-19T11:48:31;739.25;;;421.10;;
26375;SDS011;30544;42.196;24.336;2023-09-19T11:51:01;731.03;;;374.67;;
26375;SDS011;30544;42.196;24.336;2023-09-19T11:53:40;765.38;;;400.15;;
26375;SDS011;30544;42.196;24.336;2023-09-19T11:56:09;763.10;;;410.27;;
26375;SDS011;30544;42.196;24.336;2023-09-19T11:58:37;764.92;;;390.92;;
26375;SDS011;30544;42.196;24.336;2023-09-19T12:01:04;747.47;;;384.05;;
26375;SDS011;30544;42.196;24.336;2023-09-19T12:03:37;502.55;;;264.52;;
26375;SDS011;30544;42.196;24.336;2023-09-19T12:06:13;806.80;;;403.02;;
26375;SDS011;30544;42.196;24.336;2023-09-19T12:08:41;785.78;;;399.20;;
26375;SDS011;30544;42.196;24.336;2023-09-19T12:11:11;536.53;;;275.60;;
26375;SDS011;30544;42.196;24.336;2023-09-19T12:13:41;532.35;;;274.33;;
26375;SDS011;30544;42.196;24.336;2023-09-19T12:16:11;533.75;;;259.30;;
26375;SDS011;30544;42.196;24.336;2023-09-19T12:18:42;528.97;;;229.73;;
26375;SDS011;30544;42.196;24.336;2023-09-19T12:23:57;275.80;;;116.72;;
26375;SDS011;30544;42.196;24.336;2023-09-19T12:26:40;559.53;;;276.73;;
26375;SDS011;30544;42.196;24.336;2023-09-19T12:29:14;778.15;;;365.98;;
26375;SDS011;30544;42.196;24.336;2023-09-19T12:31:47;534.45;;;265.70;;
26375;SDS011;30544;42.196;24.336;2023-09-19T12:34:16;509.88;;;217.63;;
26375;SDS011;30544;42.196;24.336;2023-09-19T12:36:46;525.17;;;259.92;;
26375;SDS011;30544;42.196;24.336;2023-09-19T12:39:22;531.05;;;264.77;;
26375;SDS011;30544;42.196;24.336;2023-09-19T12:41:49;527.75;;;260.27;;
26375;SDS011;30544;42.196;24.336;2023-09-19T12:44:18;505.73;;;209.82;;
26375;SDS011;30544;42.196;24.336;2023-09-19T12:46:45;759.45;;;340.77;;
26375;SDS011;30544;42.196;24.336;2023-09-19T12:49:14;522.85;;;255.70;;
26375;SDS011;30544;42.196;24.336;2023-09-19T12:51:43;543.08;;;236.10;;
26375;SDS011;30544;42.196;24.336;2023-09-19T12:54:11;105.13;;;29.88;;
26375;SDS011;30544;42.196;24.336;2023-09-19T12:56:40;548.67;;;252.95;;
26375;SDS011;30544;42.196;24.336;2023-09-19T12:59:09;41.75;;;12.55;;
26375;SDS011;30544;42.196;24.336;2023-09-19T13:01:39;48.47;;;15.00;;
26375;SDS011;30544;42.196;24.336;2023-09-19T13:04:10;47.20;;;14.68;;
26375;SDS011;30544;42.196;24.336;2023-09-19T13:06:40;33.45;;;9.98;;
26375;SDS011;30544;42.196;24.336;2023-09-19T13:09:09;37.90;;;12.00;;
26375;SDS011;30544;42.196;24.336;2023-09-19T13:11:37;33.15;;;10.73;;
26375;SDS011;30544;42.196;24.336;2023-09-19T13:14:16;43.55;;;12.50;;
26375;SDS011;30544;42.196;24.336;2023-09-19T13:16:54;41.25;;;12.07;;
26375;SDS011;30544;42.196;24.336;2023-09-19T13:19:34;46.92;;;16.77;;
26375;SDS011;30544;42.196;24.336;2023-09-19T13:25:04;38.97;;;11.82;;
26375;SDS011;30544;42.196;24.336;2023-09-19T13:27:34;57.08;;;15.68;;
26375;SDS011;30544;42.196;24.336;2023-09-19T13:30:01;39.33;;;12.45;;
26375;SDS011;30544;42.196;24.336;2023-09-19T13:32:31;54.83;;;12.43;;
26375;SDS011;30544;42.196;24.336;2023-09-19T13:34:58;44.92;;;10.98;;
26375;SDS011;30544;42.196;24.336;2023-09-19T13:37:25;41.47;;;10.35;;
26375;SDS011;30544;42.196;24.336;2023-09-19T13:39:52;42.67;;;11.02;;
26375;SDS011;30544;42.196;24.336;2023-09-19T13:42:19;46.65;;;12.25;;
26375;SDS011;30544;42.196;24.336;2023-09-19T13:44:48;37.50;;;10.10;;
26375;SDS011;30544;42.196;24.336;2023-09-19T13:47:15;46.22;;;12.10;;
26375;SDS011;30544;42.196;24.336;2023-09-19T13:49:49;41.15;;;11.02;;
26375;SDS011;30544;42.196;24.336;2023-09-19T13:52:17;57.90;;;13.85;;
26375;SDS011;30544;42.196;24.336;2023-09-19T13:54:44;46.83;;;12.52;;
26375;SDS011;30544;42.196;24.336;2023-09-19T13:57:11;50.53;;;12.48;;
26375;SDS011;30544;42.196;24.336;2023-09-19T13:59:38;53.30;;;12.90;;
26375;SDS011;30544;42.196;24.336;2023-09-19T14:02:06;63.90;;;15.77;;
26375;SDS011;30544;42.196;24.336;2023-09-19T14:04:33;51.60;;;12.77;;
26375;SDS011;30544;42.196;24.336;2023-09-19T14:07:00;61.45;;;16.65;;
26375;SDS011;30544;42.196;24.336;2023-09-19T14:09:28;47.50;;;12.25;;
26375;SDS011;30544;42.196;24.336;2023-09-19T14:11:55;42.60;;;11.68;;
26375;SDS011;30544;42.196;24.336;2023-09-19T14:14:22;43.03;;;11.57;;
26375;SDS011;30544;42.196;24.336;2023-09-19T14:16:49;48.78;;;13.07;;
26375;SDS011;30544;42.196;24.336;2023-09-19T14:19:17;37.08;;;10.63;;
26375;SDS011;30544;42.196;24.336;2023-09-19T14:21:44;54.08;;;14.55;;
26375;SDS011;30544;42.196;24.336;2023-09-19T14:24:11;51.53;;;12.60;;
26375;SDS011;30544;42.196;24.336;2023-09-19T14:26:43;39.33;;;10.02;;
26375;SDS011;30544;42.196;24.336;2023-09-19T14:29:09;44.10;;;11.75;;
26375;SDS011;30544;42.196;24.336;2023-09-19T14:31:36;44.88;;;11.57;;
26375;SDS011;30544;42.196;24.336;2023-09-19T14:34:05;40.50;;;10.63;;
26375;SDS011;30544;42.196;24.336;2023-09-19T14:36:36;42.75;;;11.18;;
26375;SDS011;30544;42.196;24.336;2023-09-19T14:39:04;57.20;;;14.07;;
26375;SDS011;30544;42.196;24.336;2023-09-19T14:41:31;39.13;;;10.65;;
26375;SDS011;30544;42.196;24.336;2023-09-19T14:43:58;42.35;;;11.35;;
26375;SDS011;30544;42.196;24.336;2023-09-19T14:46:25;58.50;;;15.07;;
26375;SDS011;30544;42.196;24.336;2023-09-19T14:48:51;59.35;;;15.55;;
26375;SDS011;30544;42.196;24.336;2023-09-19T14:51:18;306.02;;;44.05;;